Time;durP1;ratioP1;P1;durP2;ratioP2;P2;SDS_P1;SDS_P2;PMS_P1;PMS_P2;Temp;Humidity;BMP_temperature;BMP_pressure;BME280_temperature;BME280_humidity;BME280_pressure;Samples;Min_cycle;Max_cycle;Signal;HPM_P1;HPM_P2
2022/01/02 00:00:19;;;;;;;;;24.33;22.67;;;;;8.92;88.11;101566.50;5141901;27;46175;-73
2022/01/02 00:03:02;;;;;;;;;24.00;23.00;;;;;8.96;87.98;101558.13;5141675;27;45251;-73
2022/01/02 00:05:32;;;;;;;;;21.33;20.00;;;;;9.02;87.96;101553.22;5123483;27;45358;-73
2022/01/02 00:08:09;;;;;;;;;21.33;21.33;;;;;9.08;87.75;101549.97;5123377;27;45488;-73
2022/01/02 00:10:44;;;;;;;;;21.00;20.67;;;;;9.12;87.98;101567.28;5123222;27;47489;-73
2022/01/02 00:13:17;;;;;;;;;22.00;22.00;;;;;9.12;87.96;101550.50;5142119;27;45409;-73
2022/01/02 00:15:42;;;;;;;;;24.67;21.33;;;;;9.16;87.75;101547.44;5123387;27;45521;-73
2022/01/02 00:18:12;;;;;;;;;19.67;18.33;;;;;9.18;87.61;101544.63;5142105;27;45309;-73
2022/01/02 00:20:46;;;;;;;;;18.33;17.33;;;;;9.16;88.00;101534.16;5142062;27;45218;-73
2022/01/02 00:23:17;;;;;;;;;18.33;18.33;;;;;9.21;87.83;101531.09;5142159;27;45308;-73
2022/01/02 00:25:43;;;;;;;;;23.33;19.67;;;;;9.27;87.78;101534.97;5142164;27;45364;-73
2022/01/02 00:28:12;;;;;;;;;19.67;19.67;;;;;9.30;87.65;101538.16;5123282;27;46177;-73
2022/01/02 00:30:37;;;;;;;;;24.00;19.00;;;;;9.34;87.89;101534.25;5123185;27;48336;-73
2022/01/02 00:33:03;;;;;;;;;22.33;21.33;;;;;9.26;87.61;101512.09;5140498;27;45261;-73
2022/01/02 00:35:29;;;;;;;;;18.00;18.00;;;;;9.29;87.60;101517.09;5142106;27;45159;-73
2022/01/02 00:37:55;;;;;;;;;20.67;20.67;;;;;9.37;87.70;101516.38;5110195;27;47324;-73
2022/01/02 00:40:20;;;;;;;;;19.67;19.67;;;;;9.39;87.39;101512.56;5120844;27;46180;-73
2022/01/02 00:42:52;;;;;;;;;17.00;16.33;;;;;9.43;87.54;101519.25;5121039;27;45183;-73
2022/01/02 00:45:26;;;;;;;;;18.00;16.00;;;;;9.41;87.49;101504.47;5121035;27;45224;-73
2022/01/02 00:47:59;;;;;;;;;21.00;20.00;;;;;9.46;87.82;101516.31;5120765;27;45467;-73
2022/01/02 00:50:37;;;;;;;;;19.33;18.33;;;;;9.45;87.33;101511.16;5120704;27;46368;-73
2022/01/02 00:53:04;;;;;;;;;20.33;19.33;;;;;9.53;87.78;101516.56;5120858;27;45178;-73
2022/01/02 00:55:33;;;;;;;;;19.00;16.67;;;;;9.52;87.58;101512.22;5119450;27;45256;-73
2022/01/02 00:58:11;;;;;;;;;22.33;21.33;;;;;9.60;87.24;101536.22;5120707;27;45385;-73
2022/01/02 01:00:45;;;;;;;;;19.00;17.33;;;;;9.57;86.86;101543.63;5131014;27;46423;-73
2022/01/02 01:03:16;;;;;;;;;20.00;17.00;;;;;9.70;87.14;101565.34;5141499;27;45351;-73
2022/01/02 01:05:45;;;;;;;;;18.00;16.67;;;;;9.70;87.15;101552.06;5122685;27;45327;-73
2022/01/02 01:08:11;;;;;;;;;20.67;18.00;;;;;9.76;87.22;101555.13;5141382;27;45471;-73
2022/01/02 01:10:39;;;;;;;;;20.00;18.33;;;;;9.78;87.10;101537.22;5141401;27;45312;-73
2022/01/02 01:13:08;;;;;;;;;20.00;18.33;;;;;9.75;87.11;101513.66;5141468;27;45245;-73
2022/01/02 01:15:35;;;;;;;;;21.67;20.00;;;;;9.71;87.11;101497.19;5144293;27;45312;-73
2022/01/02 01:18:02;;;;;;;;;26.33;22.00;;;;;9.74;86.86;101496.88;5144941;27;45355;-73
2022/01/02 01:20:35;;;;;;;;;21.33;19.67;;;;;9.80;86.74;101508.72;5144894;27;45367;-73
2022/01/02 01:23:00;;;;;;;;;17.33;17.33;;;;;9.77;86.94;101507.19;5144967;27;45353;-73
2022/01/02 01:25:26;;;;;;;;;20.67;20.67;;;;;9.78;86.82;101514.16;5144589;27;45632;-73
2022/01/02 01:27:53;;;;;;;;;19.00;17.00;;;;;9.77;87.06;101509.84;5144912;27;45361;-73
2022/01/02 01:30:21;;;;;;;;;21.00;19.00;;;;;9.66;86.79;101486.16;5144674;27;45501;-73
2022/01/02 01:32:47;;;;;;;;;17.67;17.00;;;;;9.62;86.94;101475.03;5144770;27;45342;-73
2022/01/02 01:35:14;;;;;;;;;18.33;17.33;;;;;9.74;86.94;101483.59;5144850;27;45527;-73
2022/01/02 01:37:40;;;;;;;;;19.33;17.33;;;;;9.75;87.07;101473.84;5144564;27;45356;-73
2022/01/02 01:40:09;;;;;;;;;21.33;20.00;;;;;9.65;86.83;101440.22;5144377;27;45345;-73
2022/01/02 01:42:41;;;;;;;;;20.00;19.00;;;;;9.65;86.58;101432.25;5144545;27;45379;-73
2022/01/02 01:47:47;;;;;;;;;14.33;13.67;;;;;9.76;86.62;101451.59;5144352;27;45164;-73
2022/01/02 01:50:14;;;;;;;;;17.67;15.33;;;;;9.76;86.49;101441.78;5144449;27;45347;-72
2022/01/02 01:52:39;;;;;;;;;17.00;15.67;;;;;9.78;86.41;101441.66;5125818;27;45297;-72
2022/01/02 01:55:05;;;;;;;;;16.33;16.00;;;;;9.79;86.11;101440.69;5144405;27;45273;-73
2022/01/02 01:57:31;;;;;;;;;19.33;17.00;;;;;9.87;86.30;101454.03;5144296;27;46929;-73
2022/01/02 01:59:57;;;;;;;;;13.67;13.67;;;;;9.87;85.31;101446.06;5144068;27;45440;-73
2022/01/02 02:02:23;;;;;;;;;15.33;14.33;;;;;9.92;85.46;101454.41;5144312;27;45455;-73
2022/01/02 02:04:48;;;;;;;;;14.33;14.33;;;;;10.04;85.08;101460.31;5142942;27;45395;-73
2022/01/02 02:07:15;;;;;;;;;16.00;14.00;;;;;10.03;85.56;101445.34;5144164;27;45205;-73
2022/01/02 02:10:24;;;;;;;;;15.33;14.67;;;;;10.09;85.81;101449.25;5143972;27;45244;-73
2022/01/02 02:12:30;;;;;;;;;15.00;15.00;;;;;10.06;85.67;101445.06;5132615;27;45524;-73
2022/01/02 02:14:56;;;;;;;;;16.33;16.33;;;;;10.12;86.12;101456.06;5142614;27;45378;-73
2022/01/02 02:17:22;;;;;;;;;13.00;12.00;;;;;10.11;86.11;101449.91;5144035;27;45515;-73
2022/01/02 02:19:49;;;;;;;;;15.33;15.33;;;;;10.09;85.94;101457.22;5125300;27;46121;-73
2022/01/02 02:22:14;;;;;;;;;14.33;12.00;;;;;10.00;86.05;101435.06;5144088;27;45297;-73
2022/01/02 02:24:41;;;;;;;;;15.00;13.00;;;;;10.04;85.90;101436.41;5141960;27;45283;-73
2022/01/02 02:27:06;;;;;;;;;13.67;13.33;;;;;9.99;85.92;101425.41;5144008;27;45210;-72
2022/01/02 02:29:32;;;;;;;;;14.33;13.00;;;;;10.00;85.75;101427.09;5143549;27;45319;-73
2022/01/02 02:31:58;;;;;;;;;13.00;13.00;;;;;10.05;85.72;101434.56;5125034;27;45348;-73
2022/01/02 02:34:23;;;;;;;;;14.33;13.67;;;;;10.02;85.73;101422.44;5144148;27;45311;-73
2022/01/02 02:36:48;;;;;;;;;14.67;13.33;;;;;10.00;85.79;101415.63;5143675;27;45299;-73
2022/01/02 02:39:14;;;;;;;;;17.67;14.33;;;;;10.02;85.65;101425.09;5142115;27;47094;-73
2022/01/02 02:41:42;;;;;;;;;16.67;14.67;;;;;10.03;85.75;101425.94;5143769;27;45263;-73
2022/01/02 02:44:18;;;;;;;;;14.33;14.33;;;;;9.97;85.62;101409.63;5143756;27;45214;-73
2022/01/02 02:49:27;;;;;;;;;14.00;13.33;;;;;10.00;85.43;101389.06;5143350;27;45227;-73
2022/01/02 02:52:24;;;;;;;;;17.00;15.00;;;;;10.02;86.04;101390.56;5143517;27;45225;-73
2022/01/02 02:54:42;;;;;;;;;14.33;14.33;;;;;9.96;85.67;101373.44;5143290;27;45341;-73
2022/01/02 02:57:12;;;;;;;;;16.33;14.00;;;;;10.05;85.58;101384.13;5141857;27;45337;-73
2022/01/02 02:59:38;;;;;;;;;13.33;13.00;;;;;10.06;85.36;101391.94;5143726;27;46672;-73
2022/01/02 03:02:04;;;;;;;;;12.00;12.00;;;;;10.05;85.64;101376.16;5164477;27;45207;-73
2022/01/02 03:04:30;;;;;;;;;15.00;14.33;;;;;10.01;85.81;101365.03;5164367;27;45790;-73
2022/01/02 03:06:56;;;;;;;;;12.67;12.67;;;;;10.02;85.77;101356.06;5164137;27;45298;-73
2022/01/02 03:09:58;;;;;;;;;16.33;16.00;;;;;10.01;85.50;101354.41;5164034;27;45885;-73
2022/01/02 03:12:13;;;;;;;;;12.33;12.33;;;;;9.94;85.27;101326.81;5162921;27;45152;-73
2022/01/02 03:14:38;;;;;;;;;13.00;13.00;;;;;10.06;85.55;101341.47;5145224;27;45385;-73
2022/01/02 03:17:05;;;;;;;;;14.00;14.00;;;;;10.03;85.15;101333.81;5164125;27;45205;-73
2022/01/02 03:19:31;;;;;;;;;15.33;14.33;;;;;10.08;85.21;101334.19;5164100;27;45288;-73
2022/01/02 03:21:58;;;;;;;;;14.33;14.33;;;;;10.08;85.13;101331.53;5163972;27;45330;-72
2022/01/02 03:24:23;;;;;;;;;12.33;12.33;;;;;10.08;85.46;101330.69;5145097;27;45344;-73
2022/01/02 03:26:49;;;;;;;;;12.67;12.33;;;;;10.16;85.40;101324.59;5163725;27;45501;-72
2022/01/02 03:29:14;;;;;;;;;10.00;10.00;;;;;10.15;84.77;101329.06;5163918;27;45266;-73
2022/01/02 03:31:40;;;;;;;;;12.00;12.00;;;;;10.17;84.54;101331.56;5145127;27;45307;-73
2022/01/02 03:34:05;;;;;;;;;16.00;15.33;;;;;10.17;84.26;101326.25;5164043;27;45750;-72
2022/01/02 03:36:30;;;;;;;;;15.33;14.00;;;;;10.24;84.49;101335.28;5160831;27;45835;-73
2022/01/02 03:38:56;;;;;;;;;12.67;12.67;;;;;10.22;84.54;101316.00;5142376;27;45351;-73
2022/01/02 03:41:21;;;;;;;;;13.67;13.67;;;;;10.30;84.32;101328.50;5124152;27;46017;-73
2022/01/02 03:43:46;;;;;;;;;14.00;13.00;;;;;10.23;84.73;101309.69;5143088;27;45239;-73
2022/01/02 03:46:12;;;;;;;;;15.00;13.00;;;;;10.24;84.37;101319.34;5142548;27;45403;-73
2022/01/02 03:48:38;;;;;;;;;12.00;12.00;;;;;10.17;83.92;101308.50;5142761;27;45279;-73
2022/01/02 03:51:04;;;;;;;;;13.67;13.67;;;;;10.32;83.76;101334.47;5142439;27;45261;-73
2022/01/02 03:53:30;;;;;;;;;13.67;12.33;;;;;10.27;83.84;101336.78;5142587;27;45290;-73
2022/01/02 03:55:55;;;;;;;;;14.33;13.00;;;;;10.35;83.36;101342.13;5142478;27;45269;-73
2022/01/02 03:58:20;;;;;;;;;13.67;13.00;;;;;10.39;83.56;101332.88;5142376;27;45984;-72
2022/01/02 04:00:46;;;;;;;;;14.67;12.33;;;;;10.43;83.92;101328.06;5120290;27;45595;-73
2022/01/02 04:03:11;;;;;;;;;16.67;15.33;;;;;10.39;83.88;101332.03;5121779;27;45285;-73
2022/01/02 04:05:37;;;;;;;;;14.33;14.33;;;;;10.34;83.90;101327.19;5121340;27;45412;-73
2022/01/02 04:08:04;;;;;;;;;14.67;14.67;;;;;10.27;83.52;101324.34;5119947;27;47171;-73
2022/01/02 04:10:29;;;;;;;;;16.33;14.33;;;;;10.35;83.60;101326.19;5120193;27;45687;-73
2022/01/02 04:12:55;;;;;;;;;13.00;12.33;;;;;10.33;83.39;101326.34;5121646;27;45293;-73
2022/01/02 04:15:20;;;;;;;;;14.00;13.33;;;;;10.36;83.25;101318.06;5121334;27;45494;-73
2022/01/02 04:17:45;;;;;;;;;14.33;14.33;;;;;10.35;82.59;101318.22;5120028;27;47838;-73
2022/01/02 04:20:13;;;;;;;;;11.00;11.00;;;;;10.43;83.28;101331.56;5121500;27;45318;-73
2022/01/02 04:22:39;;;;;;;;;17.00;15.33;;;;;10.39;82.36;101308.13;5120269;27;45287;-72
2022/01/02 04:25:05;;;;;;;;;15.00;15.00;;;;;10.45;82.94;101313.66;5120904;27;45305;-72
2022/01/02 04:27:31;;;;;;;;;15.00;15.00;;;;;10.47;83.56;101308.19;5121287;27;45541;-73
2022/01/02 04:29:56;;;;;;;;;12.00;12.00;;;;;10.38;83.41;101296.66;5121197;27;45697;-73
2022/01/02 04:32:21;;;;;;;;;15.33;15.33;;;;;10.41;83.38;101304.31;5120066;27;45373;-73
2022/01/02 04:34:47;;;;;;;;;14.00;14.00;;;;;10.41;83.33;101301.66;5121188;27;45444;-72
2022/01/02 04:37:12;;;;;;;;;11.67;11.67;;;;;10.44;83.07;101311.13;5127762;27;45319;-72
2022/01/02 04:39:39;;;;;;;;;12.67;12.67;;;;;10.41;83.56;101296.34;5141739;27;45343;-72
2022/01/02 04:42:06;;;;;;;;;14.67;13.33;;;;;10.40;83.34;101292.03;5142061;27;45314;-73
2022/01/02 04:44:31;;;;;;;;;13.00;12.33;;;;;10.33;83.49;101277.72;5141683;27;45318;-73
2022/01/02 04:46:57;;;;;;;;;15.00;14.33;;;;;10.32;83.59;101284.00;5141477;27;46359;-73
2022/01/02 04:49:23;;;;;;;;;12.33;12.33;;;;;10.33;83.56;101283.84;5141605;27;45289;-73
2022/01/02 04:51:48;;;;;;;;;12.33;12.33;;;;;10.31;82.63;101275.22;5123241;27;45269;-73
2022/01/02 04:54:14;;;;;;;;;13.33;13.33;;;;;10.42;83.28;101286.53;5141645;27;45148;-72
2022/01/02 04:56:39;;;;;;;;;11.67;11.67;;;;;10.45;82.73;101275.59;5140327;27;47452;-72
2022/01/02 04:59:05;;;;;;;;;12.67;12.00;;;;;10.46;82.82;101286.09;5141495;27;45219;-72
2022/01/02 05:01:30;;;;;;;;;13.00;12.00;;;;;10.48;83.38;101280.63;5159832;27;45225;-73
2022/01/02 05:03:55;;;;;;;;;15.67;13.33;;;;;10.39;83.37;101255.81;5162122;27;45505;-73
2022/01/02 05:06:21;;;;;;;;;12.00;9.00;;;;;10.41;83.13;101264.44;5143506;27;48448;-73
2022/01/02 05:08:46;;;;;;;;;17.00;15.00;;;;;10.32;82.23;101241.47;5143536;27;45192;-72
2022/01/02 05:11:17;;;;;;;;;13.00;13.00;;;;;10.44;81.91;101258.81;5162660;27;45356;-73
2022/01/02 05:13:43;;;;;;;;;12.00;12.00;;;;;10.52;82.51;101246.56;5162417;27;45277;-73
2022/01/02 05:16:09;;;;;;;;;12.33;12.00;;;;;10.47;82.12;101252.38;5162233;27;45302;-73
2022/01/02 05:18:34;;;;;;;;;12.67;11.33;;;;;10.50;81.58;101261.88;5162213;27;45296;-73
2022/01/02 05:21:00;;;;;;;;;12.00;12.00;;;;;10.50;82.13;101232.63;5162461;27;45148;-73
2022/01/02 05:23:25;;;;;;;;;14.67;12.67;;;;;10.54;81.87;101236.63;5162133;27;45490;-73
2022/01/02 05:25:51;;;;;;;;;12.33;11.67;;;;;10.53;81.18;101227.81;5160694;27;46979;-73
2022/01/02 05:28:16;;;;;;;;;12.00;11.67;;;;;10.62;81.98;101228.66;5162093;27;45247;-73
2022/01/02 05:30:42;;;;;;;;;10.00;10.00;;;;;10.62;81.72;101228.66;5162490;27;45284;-73
2022/01/02 05:33:08;;;;;;;;;14.00;14.00;;;;;10.23;81.44;101184.84;5143239;27;47169;-73
2022/01/02 05:35:34;;;;;;;;;11.00;11.00;;;;;10.59;81.06;101232.47;5162129;27;45401;-73
2022/01/02 05:38:01;;;;;;;;;13.00;10.00;;;;;10.59;80.91;101226.31;5148027;27;45317;-73
2022/01/02 05:40:31;;;;;;;;;12.33;10.33;;;;;10.73;80.67;101241.66;5141347;27;45279;-73
2022/01/02 05:43:00;;;;;;;;;12.00;11.00;;;;;10.75;81.12;101232.69;5140987;27;45413;-73
2022/01/02 05:45:26;;;;;;;;;10.67;10.67;;;;;10.71;81.10;101233.00;5140776;27;45333;-73
2022/01/02 05:47:51;;;;;;;;;10.33;10.33;;;;;10.62;81.21;101217.22;5140942;27;45357;-73
2022/01/02 05:50:17;;;;;;;;;12.67;10.33;;;;;10.64;81.06;101224.03;5141124;27;45337;-73
2022/01/02 05:52:42;;;;;;;;;12.67;11.67;;;;;10.70;80.93;101235.81;5140957;27;45188;-73
2022/01/02 05:55:08;;;;;;;;;11.00;11.00;;;;;10.66;80.63;101216.72;5140757;27;46181;-73
2022/01/02 05:57:33;;;;;;;;;12.67;11.33;;;;;10.66;80.80;101214.06;5140855;27;45290;-73
2022/01/02 05:59:58;;;;;;;;;11.00;11.00;;;;;10.71;79.92;101222.38;5118917;27;45489;-72
2022/01/02 06:02:24;;;;;;;;;11.33;10.00;;;;;10.65;80.43;101220.34;5123626;27;45199;-73
2022/01/02 06:04:49;;;;;;;;;11.67;11.67;;;;;10.76;80.17;101245.81;5121935;27;48163;-73
2022/01/02 06:07:15;;;;;;;;;4.33;4.33;;;;;10.73;80.13;101238.16;5122283;27;45239;-73
2022/01/02 06:09:40;;;;;;;;;10.67;10.67;;;;;10.76;79.71;101231.69;5123433;27;45320;-73
2022/01/02 06:12:06;;;;;;;;;10.33;9.33;;;;;10.75;79.61;101224.72;5123365;27;45444;-73
2022/01/02 06:14:32;;;;;;;;;9.00;8.33;;;;;10.80;80.10;101244.47;5123417;27;46044;-73
2022/01/02 06:16:57;;;;;;;;;9.33;9.33;;;;;10.82;79.75;101233.69;5121939;27;45393;-73
2022/01/02 06:19:22;;;;;;;;;12.67;11.33;;;;;10.77;79.85;101222.72;5123531;27;45264;-73
2022/01/02 06:21:47;;;;;;;;;11.33;11.33;;;;;10.85;79.80;101228.88;5123366;27;45250;-73
2022/01/02 06:24:13;;;;;;;;;12.67;12.00;;;;;10.82;79.70;101223.88;5123067;27;45394;-73
2022/01/02 06:26:38;;;;;;;;;11.33;10.33;;;;;10.82;79.81;101226.56;5121918;27;45723;-73
2022/01/02 06:29:03;;;;;;;;;11.00;9.67;;;;;10.83;79.75;101235.34;5123222;27;45364;-73
2022/01/02 06:31:30;;;;;;;;;10.33;10.33;;;;;10.86;79.33;101227.03;5123188;27;45394;-73
2022/01/02 06:33:55;;;;;;;;;10.00;9.00;;;;;10.79;79.06;101204.75;5123005;27;46096;-73
2022/01/02 06:36:21;;;;;;;;;11.00;10.33;;;;;10.86;79.88;101213.75;5123171;27;45262;-73
2022/01/02 06:38:46;;;;;;;;;9.33;9.33;;;;;10.87;80.19;101242.03;5143269;27;45316;-72
2022/01/02 06:41:12;;;;;;;;;10.00;10.00;;;;;10.81;79.33;101219.56;5143842;27;45273;-73
2022/01/02 06:43:38;;;;;;;;;6.00;6.00;;;;;10.84;79.42;101232.53;5143602;27;46185;-73
2022/01/02 06:46:04;;;;;;;;;9.67;9.00;;;;;10.83;78.83;101228.22;5143633;27;45730;-73
2022/01/02 06:48:30;;;;;;;;;11.67;10.00;;;;;10.87;79.27;101236.69;5125369;27;45248;-73
2022/01/02 06:50:55;;;;;;;;;11.00;10.00;;;;;10.88;79.13;101251.66;5143650;27;45285;-73
2022/01/02 06:53:20;;;;;;;;;10.00;10.00;;;;;10.89;78.89;101249.84;5143236;27;46023;-73
2022/01/02 06:55:46;;;;;;;;;12.00;12.00;;;;;10.81;79.22;101238.16;5143709;27;45217;-73
2022/01/02 06:58:11;;;;;;;;;12.00;10.00;;;;;10.75;78.47;101225.56;5143825;27;45268;-73
2022/01/02 07:00:37;;;;;;;;;9.33;9.33;;;;;10.87;78.97;101242.03;5131648;27;46416;-73
2022/01/02 07:03:04;;;;;;;;;12.67;11.67;;;;;10.81;79.44;101238.16;5143332;27;47606;-73
2022/01/02 07:05:29;;;;;;;;;10.67;10.67;;;;;10.86;78.14;101251.81;5143084;27;45369;-73
2022/01/02 07:07:54;;;;;;;;;13.67;13.00;;;;;10.89;79.02;101241.84;5143317;27;45346;-73
2022/01/02 07:10:20;;;;;;;;;13.67;12.67;;;;;10.82;78.67;101233.69;5143311;27;45288;-73
2022/01/02 07:12:45;;;;;;;;;13.00;12.67;;;;;10.84;78.74;101245.00;5141800;27;47455;-73
2022/01/02 07:15:11;;;;;;;;;13.67;13.00;;;;;10.78;79.44;101238.53;5143283;27;45303;-73
2022/01/02 07:17:37;;;;;;;;;12.33;12.00;;;;;10.71;79.34;101230.34;5143380;27;45464;-73
2022/01/02 07:20:07;;;;;;;;;13.00;10.00;;;;;10.57;79.41;101220.34;5143215;27;45249;-73
2022/01/02 07:22:33;;;;;;;;;11.33;11.00;;;;;10.68;79.49;101238.66;5143017;27;46233;-73
2022/01/02 07:24:58;;;;;;;;;11.00;11.00;;;;;10.58;80.14;101228.16;5142747;27;45370;-73
2022/01/02 07:27:23;;;;;;;;;14.00;11.67;;;;;10.59;79.85;101237.78;5143272;27;45238;-73
2022/01/02 07:29:51;;;;;;;;;10.67;9.00;;;;;10.46;79.92;101226.78;5141323;27;46008;-73
2022/01/02 07:32:17;;;;;;;;;10.00;10.00;;;;;10.38;79.92;101240.84;5143014;27;46019;-73
2022/01/02 07:34:43;;;;;;;;;11.00;10.00;;;;;10.29;79.99;101249.78;5142820;27;45232;-73
2022/01/02 07:37:09;;;;;;;;;10.67;10.00;;;;;10.17;80.26;101254.53;5136757;27;45475;-72
2022/01/02 07:39:35;;;;;;;;;16.67;15.00;;;;;10.18;80.58;101278.28;5137910;27;46418;-73
2022/01/02 07:42:00;;;;;;;;;10.00;10.00;;;;;10.10;80.65;101270.28;5121839;27;45910;-73
2022/01/02 07:44:25;;;;;;;;;12.33;11.33;;;;;10.08;80.84;101280.22;5121426;27;45364;-73
2022/01/02 07:46:51;;;;;;;;;13.33;12.00;;;;;10.07;80.75;101284.72;5121558;27;45220;-73
2022/01/02 07:49:16;;;;;;;;;13.33;13.00;;;;;10.02;80.82;101270.22;5118035;27;45589;-73
2022/01/02 07:51:41;;;;;;;;;10.33;10.00;;;;;10.15;81.43;101291.88;5121385;27;45347;-73
2022/01/02 07:54:07;;;;;;;;;8.67;8.67;;;;;10.22;81.54;101292.94;5121640;27;45650;-73
2022/01/02 07:56:32;;;;;;;;;10.67;10.67;;;;;10.18;81.45;101285.44;5121921;27;45332;-73
2022/01/02 07:58:59;;;;;;;;;10.00;10.00;;;;;10.24;81.30;101295.44;5121636;27;45288;-73
2022/01/02 08:01:25;;;;;;;;;12.67;12.67;;;;;10.32;81.42;101297.28;5140860;27;47396;-73
2022/01/02 08:03:51;;;;;;;;;10.67;9.67;;;;;10.33;81.48;101291.00;5142405;27;45575;-73
2022/01/02 08:06:16;;;;;;;;;10.00;9.00;;;;;10.29;82.24;101286.97;5142180;27;45455;-73
2022/01/02 08:08:42;;;;;;;;;12.33;11.00;;;;;10.47;82.14;101324.97;5141976;27;45471;-74
2022/01/02 08:11:07;;;;;;;;;12.00;11.00;;;;;10.52;82.11;101331.63;5130841;27;45936;-73
2022/01/02 08:13:33;;;;;;;;;12.00;11.33;;;;;10.56;81.71;101332.97;5126875;27;45285;-74
2022/01/02 08:15:58;;;;;;;;;11.67;10.00;;;;;10.62;81.20;101329.66;5142426;27;45316;-74
2022/01/02 08:18:23;;;;;;;;;11.00;11.00;;;;;10.65;81.24;101326.69;5128761;27;45456;-72
2022/01/02 08:20:49;;;;;;;;;12.00;12.00;;;;;10.62;81.13;101319.03;5121468;27;45239;-73
2022/01/02 08:23:15;;;;;;;;;15.00;15.00;;;;;10.66;81.13;101328.38;5120580;27;45307;-73
2022/01/02 08:25:41;;;;;;;;;7.67;7.67;;;;;10.65;81.30;101345.31;5121562;27;45272;-75
2022/01/02 08:28:06;;;;;;;;;11.00;10.00;;;;;10.65;80.93;101337.31;5123165;27;45294;-72
2022/01/02 08:30:33;;;;;;;;;12.00;11.00;;;;;10.68;81.11;101339.66;5141812;27;45227;-72
2022/01/02 08:32:58;;;;;;;;;16.33;16.00;;;;;10.53;81.25;101314.69;5142031;27;45320;-75
2022/01/02 08:35:24;;;;;;;;;13.67;13.00;;;;;10.68;81.34;101334.34;5139928;27;45284;-74
2022/01/02 08:37:49;;;;;;;;;14.00;14.00;;;;;10.67;81.30;101330.03;5117463;27;47300;-75
2022/01/02 08:40:15;;;;;;;;;19.67;18.67;;;;;10.66;81.32;101331.03;5141149;27;45283;-74
2022/01/02 08:42:40;;;;;;;;;16.33;16.33;;;;;10.68;81.41;101339.66;5139289;27;45476;-74
2022/01/02 08:45:06;;;;;;;;;17.00;16.67;;;;;10.72;81.45;101335.69;5145930;27;45265;-75
2022/01/02 08:47:32;;;;;;;;;14.67;14.67;;;;;10.64;81.33;101322.38;5141724;27;46355;-75
2022/01/02 08:49:57;;;;;;;;;11.67;11.67;;;;;10.82;81.61;101348.03;5141613;27;45319;-75
2022/01/02 08:52:24;;;;;;;;;12.67;12.67;;;;;10.81;81.71;101333.06;5141803;27;45223;-75
2022/01/02 08:54:50;;;;;;;;;15.00;15.00;;;;;10.80;81.45;101328.72;5140314;27;45218;-75
2022/01/02 08:57:16;;;;;;;;;16.33;15.67;;;;;10.79;81.39;101319.09;5141644;27;45174;-75
2022/01/02 08:59:41;;;;;;;;;13.33;12.00;;;;;10.86;81.72;101333.41;5141167;27;45294;-74
2022/01/02 09:02:07;;;;;;;;;14.00;12.67;;;;;10.94;81.38;101344.09;5123058;27;46038;-74
2022/01/02 09:04:32;;;;;;;;;13.00;11.33;;;;;10.93;81.20;101337.09;5141258;27;45364;-75
2022/01/02 09:06:58;;;;;;;;;13.33;13.33;;;;;10.97;81.72;101349.09;5141380;27;45279;-75
2022/01/02 09:09:24;;;;;;;;;14.67;12.33;;;;;11.03;81.34;101362.72;5120448;27;47207;-74
2022/01/02 09:11:52;;;;;;;;;14.00;14.00;;;;;11.05;81.36;101368.72;5141371;27;45364;-74
2022/01/02 09:14:17;;;;;;;;;15.00;15.00;;;;;10.99;81.29;101357.72;5141390;27;45257;-77
2022/01/02 09:16:44;;;;;;;;;13.67;13.67;;;;;11.10;81.31;101375.22;5141402;27;45202;-76
2022/01/02 09:19:11;;;;;;;;;16.67;14.00;;;;;11.12;81.25;101372.38;5141138;27;46152;-75
2022/01/02 09:21:36;;;;;;;;;16.33;14.00;;;;;11.15;81.39;101374.72;5141279;27;45328;-75
2022/01/02 09:24:02;;;;;;;;;14.33;13.00;;;;;11.13;81.28;101374.03;5141228;27;45402;-75
2022/01/02 09:26:28;;;;;;;;;14.33;13.33;;;;;11.16;81.47;101379.03;5141228;27;45331;-76
2022/01/02 09:28:53;;;;;;;;;12.00;11.33;;;;;11.19;81.30;101389.38;5141031;27;45335;-76
2022/01/02 09:31:18;;;;;;;;;17.00;14.67;;;;;11.09;81.33;101370.06;5141235;27;45270;-76
2022/01/02 09:33:44;;;;;;;;;12.00;11.00;;;;;11.23;81.44;101385.38;5141341;27;45335;-76
2022/01/02 09:36:09;;;;;;;;;12.33;12.33;;;;;11.15;81.63;101369.41;5143436;27;45493;-77
2022/01/02 09:38:35;;;;;;;;;12.33;12.33;;;;;11.27;81.56;101382.38;5144132;27;46037;-76
2022/01/02 09:41:00;;;;;;;;;13.33;12.67;;;;;11.32;81.80;101394.22;5143438;27;45275;-76
2022/01/02 09:44:42;;;;;;;;;;;;;;;;;;;;;
2022/01/02 09:51:16;;;;;;;;;15.00;15.00;;;;;11.17;82.00;101359.44;5079781;27;46216;-77
2022/01/02 09:54:10;;;;;;;;;17.00;15.33;;;;;11.46;81.78;101392.75;5054878;28;45513;-76
2022/01/02 09:56:44;;;;;;;;;14.67;14.00;;;;;11.30;82.00;101369.59;5042795;28;45394;-76
2022/01/02 10:00:10;;;;;;;;;15.00;13.00;;;;;11.50;82.05;101390.59;5042660;28;45966;-77
2022/01/02 10:21:17;;;;;;;;;17.00;17.00;;;;;11.38;82.28;101355.47;4989919;28;45457;-76
2022/01/02 10:27:48;;;;;;;;;13.33;12.33;;;;;11.86;82.02;101394.78;4901339;29;45659;-76
2022/01/02 10:34:06;;;;;;;;;14.00;14.00;;;;;11.87;81.99;101375.97;5010656;28;45424;-76
2022/01/02 10:37:00;;;;;;;;;16.67;14.67;;;;;12.04;81.79;101393.78;5017899;28;45372;-77
2022/01/02 10:39:25;;;;;;;;;12.00;12.00;;;;;12.04;81.95;101397.28;5003284;28;45461;-77
2022/01/02 10:41:51;;;;;;;;;10.67;10.00;;;;;12.04;81.50;101396.44;5103163;27;47327;-77
2022/01/02 10:44:23;;;;;;;;;12.67;11.33;;;;;12.14;81.65;101405.13;5111872;27;45433;-77
2022/01/02 10:47:11;;;;;;;;;14.00;14.00;;;;;12.16;81.84;101405.78;5111621;27;45232;-76
2022/01/02 10:49:59;;;;;;;;;12.00;11.33;;;;;12.20;81.74;101398.28;5111889;27;46079;-77
2022/01/02 10:52:31;;;;;;;;;13.67;11.67;;;;;12.25;81.55;101407.41;5099041;27;48884;-77
2022/01/02 10:54:59;;;;;;;;;14.33;13.33;;;;;12.26;81.69;101389.59;5111363;27;45398;-77
2022/01/02 10:57:26;;;;;;;;;12.00;12.00;;;;;12.45;81.93;101406.25;5100152;27;45413;-78
2022/01/02 10:59:56;;;;;;;;;10.00;10.00;;;;;12.46;81.48;101383.91;5115800;27;45377;-77
2022/01/02 11:02:23;;;;;;;;;13.00;10.33;;;;;12.67;81.31;101407.34;5107674;27;47196;-77
2022/01/02 11:04:59;;;;;;;;;13.67;13.00;;;;;12.84;81.33;101418.75;5115580;27;45388;-77
2022/01/02 11:07:25;;;;;;;;;9.33;9.33;;;;;12.98;80.80;101424.38;5131378;27;45344;-76
2022/01/02 11:09:55;;;;;;;;;12.33;10.67;;;;;12.97;80.26;101398.72;5143160;27;45293;-78
2022/01/02 11:12:22;;;;;;;;;9.33;9.33;;;;;13.06;80.36;101400.34;5143219;27;45451;-77
2022/01/02 11:14:49;;;;;;;;;12.33;10.00;;;;;13.12;80.11;101399.66;5143097;27;45356;-78
2022/01/02 11:17:16;;;;;;;;;12.67;12.67;;;;;13.28;80.10;101411.22;5142140;27;45370;-77
2022/01/02 11:19:41;;;;;;;;;9.00;8.00;;;;;13.31;79.73;101410.88;5143147;27;45336;-77
2022/01/02 11:22:19;;;;;;;;;11.33;9.00;;;;;13.30;79.87;101408.38;5142927;27;46131;-76
2022/01/02 11:24:54;;;;;;;;;12.67;10.67;;;;;13.31;79.32;101399.34;5141528;27;46352;-76
2022/01/02 11:27:40;;;;;;;;;12.67;8.67;;;;;13.38;79.35;101403.00;5143097;27;45230;-77
2022/01/02 11:30:34;;;;;;;;;9.00;9.00;;;;;13.44;79.17;101410.28;5142604;27;45916;-79
2022/01/02 11:33:25;;;;;;;;;7.00;4.67;;;;;13.32;78.98;101375.16;5141585;27;46986;-79
2022/01/02 11:35:51;;;;;;;;;11.00;9.67;;;;;13.48;78.94;101390.25;5142945;27;45341;-79
2022/01/02 11:38:21;;;;;;;;;8.00;7.00;;;;;13.45;78.61;101385.25;5126576;27;45501;-79
2022/01/02 11:40:56;;;;;;;;;8.00;8.00;;;;;13.57;78.57;101390.22;5120826;27;46308;-79
2022/01/02 11:44:10;;;;;;;;;8.33;7.33;;;;;13.70;78.76;101385.09;5121863;27;45191;-79
2022/01/02 11:46:31;;;;;;;;;8.67;8.00;;;;;13.71;78.66;101373.41;5120527;27;45340;-79
2022/01/02 11:49:05;;;;;;;;;8.67;8.00;;;;;13.87;78.15;101388.47;5122111;27;45321;-79
2022/01/02 11:51:58;;;;;;;;;9.00;6.00;;;;;13.91;78.14;101399.63;5121835;27;45325;-79
2022/01/02 11:54:35;;;;;;;;;11.33;8.00;;;;;13.93;77.87;101388.75;5121474;27;45353;-79